Terminal Aerodrome Forecast
Issued by NWS

Home | Current Version | Previous Version | Text Only | Print | Product List | Glossary On
Versions: 1 2 3 4 5 6 7 8 9 10 11 12 13 14 15 16 17 18
038
FTUS46 KSEW 270903 AAB
TAFBFI
TAF AMD
KBFI 270903Z 2709/2806 VRB03KT P6SM SCT020 BKN035
      TEMPO 2709/2712 BKN020 OVC035
     FM271200 VRB03KT P6SM BKN017 OVC035
     FM271800 33006KT P6SM SCT020 BKN040
     FM272200 36010KT P6SM SCT040=

USA.gov is the U.S. government's official web portal to all federal, state and local government web resources and services.